Time;durP1;ratioP1;P1;durP2;ratioP2;P2;SDS_P1;SDS_P2;PMS_P1;PMS_P2;Temp;Humidity;BMP_temperature;BMP_pressure;BME280_temperature;BME280_humidity;BME280_pressure;Samples;Min_cycle;Max_cycle;Signal;HPM_P1;HPM_P2
2021/12/11 00:01:44;;;;;;;89.13;43.67;;;;;;;3.85;91.56;99504.65;1531723;88;21420;-86
2021/12/11 00:04:19;;;;;;;90.62;42.17;;;;;;;3.89;91.57;99515.23;1428810;89;21426;-85
2021/12/11 00:06:52;;;;;;;92.97;40.40;;;;;;;3.88;91.37;99510.94;1550874;88;21335;-86
2021/12/11 00:09:33;;;;;;;91.93;43.63;;;;;;;3.83;91.00;99514.44;1552450;88;21332;-85
2021/12/11 00:12:09;;;;;;;101.43;43.27;;;;;;;3.76;91.00;99511.95;1399489;88;21380;-86
2021/12/11 00:14:40;;;;;;;85.37;41.37;;;;;;;3.67;91.39;99509.62;1564385;87;23481;-85
2021/12/11 00:17:10;;;;;;;92.53;39.13;;;;;;;3.67;91.39;99509.62;1492820;89;21389;-86
2021/12/11 00:19:40;;;;;;;84.13;40.10;;;;;;;3.54;91.78;99503.27;1565640;88;21168;-86
2021/12/11 00:22:12;;;;;;;90.87;41.57;;;;;;;3.52;91.85;99510.40;1432961;88;22254;-85
2021/12/11 00:24:40;;;;;;;85.47;39.50;;;;;;;3.52;91.85;99510.40;1520405;88;21647;-86
2021/12/11 00:27:15;;;;;;;80.80;37.67;;;;;;;3.49;92.02;99522.42;1462226;88;22530;-85
2021/12/11 00:29:43;;;;;;;82.13;38.43;;;;;;;3.42;92.47;99521.24;1444319;90;22162;-85
2021/12/11 00:32:25;;;;;;;80.17;39.70;;;;;;;3.39;92.71;99520.19;1441448;90;22219;-85
2021/12/11 00:34:57;;;;;;;82.47;37.10;;;;;;;3.40;92.81;99521.87;1437788;90;22167;-85
2021/12/11 00:37:26;;;;;;;71.93;37.13;;;;;;;3.38;93.28;99525.08;1447480;90;22289;-85
2021/12/11 00:39:59;;;;;;;79.00;38.60;;;;;;;3.38;93.28;99525.08;1527068;90;21370;-85
2021/12/11 00:42:34;;;;;;;86.47;41.03;;;;;;;3.29;93.84;99531.05;1523667;89;22064;-85
2021/12/11 00:44:59;;;;;;;88.37;39.58;;;;;;;3.26;93.77;99535.22;1526620;89;22245;-87
2021/12/11 00:47:31;;;;;;;96.67;45.63;;;;;;;3.24;93.37;99541.86;1372913;90;21399;-86
2021/12/11 00:50:11;;;;;;;103.60;45.90;;;;;;;3.32;93.76;99549.11;1539966;89;23085;-85
2021/12/11 00:52:49;;;;;;;106.13;44.87;;;;;;;3.32;93.92;99545.19;1511496;91;23168;-86
2021/12/11 00:55:24;;;;;;;111.53;49.13;;;;;;;3.35;93.70;99555.41;1503595;90;22042;-86
2021/12/11 00:58:12;;;;;;;115.10;48.43;;;;;;;3.38;93.79;99550.75;1479425;90;22227;-86
2021/12/11 01:00:59;;;;;;;127.30;50.70;;;;;;;3.44;93.76;99551.22;1333143;93;22039;-86
2021/12/11 01:03:47;;;;;;;118.03;47.00;;;;;;;3.44;93.61;99555.97;1379382;93;22088;-85
2021/12/11 01:06:26;;;;;;;104.70;43.80;;;;;;;3.35;93.87;99558.84;1465449;93;22047;-85
2021/12/11 01:08:59;;;;;;;97.67;43.70;;;;;;;3.25;94.12;99576.23;1480020;93;22134;-83
2021/12/11 01:11:32;;;;;;;105.70;47.03;;;;;;;3.13;95.33;99557.09;1468117;93;21399;-82
2021/12/11 01:14:15;;;;;;;101.60;43.63;;;;;;;3.11;95.24;99553.79;1460031;93;22072;-81
2021/12/11 01:16:40;;;;;;;103.53;45.57;;;;;;;3.06;96.03;99555.92;1345941;93;23678;-82
2021/12/11 01:19:16;;;;;;;110.40;45.88;;;;;;;3.07;95.69;99558.89;1480162;93;22116;-82
2021/12/11 01:24:30;;;;;;;95.62;42.17;;;;;;;3.20;95.62;99556.63;1474960;93;21991;-81
2021/12/11 01:26:51;;;;;;;95.53;41.10;;;;;;;3.19;95.49;99561.48;1399980;92;21480;-81
2021/12/11 01:29:23;;;;;;;;;;;;;;;3.16;95.35;99565.17;1400374;93;22218;-82
2021/12/11 01:31:55;;;;;;;97.22;42.48;;;;;;;3.13;95.26;99568.86;1423939;93;20354;-82
2021/12/11 01:34:26;;;;;;;104.57;44.03;;;;;;;3.16;95.21;99565.17;1480260;93;21332;-82
2021/12/11 01:36:55;;;;;;;106.40;44.50;;;;;;;3.23;95.35;99566.84;1412377;93;23190;-81
2021/12/11 01:39:27;;;;;;;103.93;42.27;;;;;;;3.28;95.27;99562.06;1477468;92;21315;-82
2021/12/11 01:41:56;;;;;;;99.27;40.17;;;;;;;3.32;95.11;99570.03;1479961;92;22037;-82
2021/12/11 01:44:29;;;;;;;97.80;41.20;;;;;;;3.31;94.79;99561.36;1479371;93;22022;-82
2021/12/11 01:47:09;;;;;;;96.57;40.63;;;;;;;3.31;94.50;99564.43;1330332;93;22214;-82
2021/12/11 01:49:41;;;;;;;100.63;41.73;;;;;;;3.33;94.39;99571.69;1480026;93;22955;-82
2021/12/11 01:52:18;;;;;;;88.17;38.53;;;;;;;3.36;94.61;99563.11;1378915;93;22217;-82
2021/12/11 01:54:47;;;;;;;89.33;38.80;;;;;;;3.36;94.61;99563.11;1480118;93;22058;-82
2021/12/11 01:57:22;;;;;;;83.70;39.80;;;;;;;3.39;93.99;99569.88;1461838;93;22348;-85
2021/12/11 01:59:57;;;;;;;87.73;38.07;;;;;;;3.39;93.99;99569.88;1479546;90;21443;-85
2021/12/11 02:02:33;;;;;;;92.13;39.47;;;;;;;3.37;93.73;99566.58;1342072;92;22043;-85
2021/12/11 02:05:03;;;;;;;89.87;41.10;;;;;;;3.41;93.87;99575.01;1383061;92;21243;-85
2021/12/11 02:07:41;;;;;;;92.53;40.13;;;;;;;3.41;93.87;99575.01;1384191;92;21346;-84
2021/12/11 02:10:20;;;;;;;97.40;43.03;;;;;;;3.44;93.61;99578.20;1406203;92;22154;-84
2021/12/11 02:12:50;;;;;;;89.83;38.10;;;;;;;3.44;93.61;99578.20;1387565;93;21437;-85
2021/12/11 02:15:29;;;;;;;103.43;43.97;;;;;;;3.46;93.80;99584.16;1463305;90;22101;-84
2021/12/11 02:18:01;;;;;;;95.33;39.53;;;;;;;3.46;93.58;99575.00;1444188;90;24057;-85
2021/12/11 02:20:37;;;;;;;91.80;39.77;;;;;;;3.38;93.47;99562.52;1436046;90;22009;-86
2021/12/11 02:23:07;;;;;;;105.80;45.17;;;;;;;3.46;93.78;99576.30;1436909;90;22272;-85
2021/12/11 02:25:39;;;;;;;104.93;47.03;;;;;;;3.46;93.78;99576.30;1439747;90;21573;-86
2021/12/11 02:28:23;;;;;;;97.13;41.33;;;;;;;3.44;93.62;99577.38;1441898;90;22149;-86
2021/12/11 02:31:14;;;;;;;99.43;42.93;;;;;;;3.44;93.62;99577.38;1440751;90;21537;-85
2021/12/11 02:34:13;;;;;;;99.77;40.88;;;;;;;3.40;93.54;99571.56;1441391;90;22067;-86
2021/12/11 02:36:46;;;;;;;95.57;41.07;;;;;;;3.36;93.77;99575.36;1437128;90;21375;-86
2021/12/11 02:39:25;;;;;;;98.77;43.80;;;;;;;3.37;93.87;99575.73;1443484;90;22296;-85
2021/12/11 02:41:59;;;;;;;102.37;46.03;;;;;;;3.34;93.92;99575.50;1440654;90;21849;-86
2021/12/11 02:44:35;;;;;;;89.57;41.97;;;;;;;3.33;93.87;99583.45;1440914;90;22179;-86
2021/12/11 02:47:16;;;;;;;94.97;39.87;;;;;;;3.34;93.84;99582.52;1436484;90;23137;-86
2021/12/11 02:50:15;;;;;;;96.33;42.10;;;;;;;3.33;93.88;99580.84;1431224;90;22336;-88
2021/12/11 02:53:07;;;;;;;97.17;40.93;;;;;;;3.35;94.03;99579.77;1443363;90;22317;-88
2021/12/11 02:55:45;;;;;;;94.45;39.25;;;;;;;3.34;94.02;99581.21;1438311;90;22139;-88
2021/12/11 02:58:21;;;;;;;97.47;41.83;;;;;;;3.25;94.53;99585.84;1437591;88;21669;-88
2021/12/11 03:01:21;;;;;;;91.20;40.37;;;;;;;3.23;94.28;99582.54;1444088;89;22193;-88
2021/12/11 03:03:52;;;;;;;93.33;39.83;;;;;;;3.26;94.47;99588.83;1443349;90;22792;-87
2021/12/11 03:06:21;;;;;;;87.83;38.77;;;;;;;3.20;94.49;99584.09;1449517;90;24161;-88
2021/12/11 03:08:51;;;;;;;91.07;39.40;;;;;;;3.20;94.38;99584.09;1443362;90;22357;-87
2021/12/11 03:11:23;;;;;;;88.27;36.53;;;;;;;3.20;94.51;99581.48;1441877;90;22381;-87
2021/12/11 03:13:54;;;;;;;80.97;34.20;;;;;;;3.15;94.67;99580.03;1441077;90;22373;-88
2021/12/11 03:16:27;;;;;;;80.10;37.65;;;;;;;3.10;95.05;99580.04;1443186;90;23055;-87
2021/12/11 03:18:56;;;;;;;74.63;35.73;;;;;;;3.03;95.23;99593.25;1448118;90;21396;-86
2021/12/11 03:21:23;;;;;;;96.53;42.57;;;;;;;3.02;95.14;99602.88;1447668;90;22287;-86
2021/12/11 03:23:52;;;;;;;78.57;35.40;;;;;;;3.10;95.51;99608.32;1442466;90;22067;-87
2021/12/11 03:26:20;;;;;;;89.27;38.07;;;;;;;3.10;95.51;99608.32;1441519;90;21367;-87
2021/12/11 03:28:51;;;;;;;84.40;36.07;;;;;;;3.13;95.20;99617.71;1439415;90;22075;-86
2021/12/11 03:31:19;;;;;;;83.07;37.15;;;;;;;3.14;95.15;99619.39;1436117;89;22842;-86
2021/12/11 03:33:56;;;;;;;76.70;35.50;;;;;;;3.15;95.12;99616.64;1444074;89;21632;-86
2021/12/11 03:36:27;;;;;;;78.90;36.00;;;;;;;3.17;95.08;99612.61;1527405;89;22153;-85
2021/12/11 03:38:59;;;;;;;73.17;35.65;;;;;;;3.25;95.26;99623.31;1527416;90;21859;-83
2021/12/11 03:41:28;;;;;;;78.37;37.30;;;;;;;3.32;95.35;99625.78;1437545;90;21408;-84
2021/12/11 03:43:55;;;;;;;90.00;41.47;;;;;;;3.38;95.15;99623.16;1512366;90;21903;-84
2021/12/11 03:46:23;;;;;;;81.43;36.67;;;;;;;3.42;94.85;99628.50;1431289;90;22050;-85
2021/12/11 03:48:59;;;;;;;83.73;39.47;;;;;;;3.51;94.79;99619.08;1445659;90;22197;-83
2021/12/11 03:51:33;;;;;;;79.17;36.37;;;;;;;3.53;94.30;99616.70;1441663;90;21433;-83
2021/12/11 03:54:06;;;;;;;86.47;39.80;;;;;;;3.53;94.30;99616.70;1442232;90;21872;-83
2021/12/11 03:56:34;;;;;;;90.00;40.00;;;;;;;3.52;94.03;99609.81;1368488;90;22174;-83
2021/12/11 03:59:09;;;;;;;79.70;37.33;;;;;;;3.52;93.95;99613.74;1501603;88;22066;-83
2021/12/11 04:01:43;;;;;;;91.73;39.43;;;;;;;3.51;93.77;99609.47;1429355;89;22880;-83
2021/12/11 04:04:21;;;;;;;74.77;31.93;;;;;;;3.53;93.84;99604.11;1386120;91;22219;-83
2021/12/11 04:06:50;;;;;;;82.87;37.60;;;;;;;3.51;93.77;99589.85;1464487;88;22373;-83
2021/12/11 04:09:19;;;;;;;89.50;39.63;;;;;;;3.50;93.57;99580.32;1466143;89;22266;-83
2021/12/11 04:11:50;;;;;;;90.70;39.50;;;;;;;3.48;93.55;99577.02;1461744;89;22175;-83
2021/12/11 04:14:24;;;;;;;84.52;38.53;;;;;;;3.46;93.36;99576.30;1524663;89;24238;-85
2021/12/11 04:16:56;;;;;;;81.57;38.47;;;;;;;3.45;93.24;99579.03;1464693;88;21346;-86
2021/12/11 04:19:24;;;;;;;80.07;35.33;;;;;;;3.39;92.98;99568.58;1466054;88;22126;-85
2021/12/11 04:21:52;;;;;;;67.40;33.57;;;;;;;3.32;93.05;99567.42;1462984;88;22058;-85
2021/12/11 04:24:24;;;;;;;62.13;30.50;;;;;;;3.22;93.14;99554.22;1464121;88;22273;-85
2021/12/11 04:26:54;;;;;;;60.03;30.57;;;;;;;2.97;94.20;99534.44;1468661;88;21566;-85
2021/12/11 04:29:23;;;;;;;64.43;31.27;;;;;;;2.76;95.40;99530.88;1466440;88;22035;-85
2021/12/11 04:31:52;;;;;;;57.50;29.77;;;;;;;2.76;94.66;99540.02;1466668;88;22169;-86
2021/12/11 04:34:22;;;;;;;62.60;31.50;;;;;;;2.76;94.89;99555.70;1467028;88;22213;-85
2021/12/11 04:37:00;;;;;;;66.33;32.57;;;;;;;2.79;94.89;99560.69;1464348;88;22087;-84
2021/12/11 04:39:34;;;;;;;61.87;30.97;;;;;;;2.79;95.16;99558.08;1467269;89;22233;-84
2021/12/11 04:42:04;;;;;;;;;;;;;;;2.78;95.36;99557.73;1462349;89;23114;-84
2021/12/11 04:44:35;;;;;;;54.00;29.93;;;;;;;2.64;97.39;99537.41;1456322;88;20402;-84
2021/12/11 04:47:13;;;;;;;57.37;30.00;;;;;;;2.71;96.85;99554.77;1461920;89;22228;-84
2021/12/11 04:49:48;;;;;;;55.53;29.37;;;;;;;2.71;96.85;99554.77;1464973;89;22159;-85
2021/12/11 04:52:18;;;;;;;63.50;32.37;;;;;;;2.74;96.92;99564.98;1462129;88;23119;-84
2021/12/11 04:55:01;;;;;;;70.97;33.57;;;;;;;2.77;96.77;99562.61;1470890;89;23083;-84
2021/12/11 05:00:18;;;;;;;55.93;29.57;;;;;;;2.90;96.77;99570.66;1462626;88;22135;-84
2021/12/11 05:08:36;;;;;;;72.03;35.10;;;;;;;2.98;96.27;99573.99;1463076;88;22235;-82
2021/12/11 05:10:40;;;;;;;64.80;33.13;;;;;;;3.01;96.36;99585.52;1465130;88;22199;-82
2021/12/11 05:13:06;;;;;;;55.40;31.52;;;;;;;3.04;96.26;99583.97;1461320;88;24088;-82
2021/12/11 05:15:39;;;;;;;65.28;34.27;;;;;;;3.07;96.47;99580.28;1466985;88;21359;-82
2021/12/11 05:18:15;;;;;;;62.40;32.70;;;;;;;3.06;96.19;99578.16;1470024;88;21382;-85
2021/12/11 05:20:47;;;;;;;62.73;32.87;;;;;;;3.10;96.23;99580.87;1467468;88;22325;-85
2021/12/11 05:23:18;;;;;;;60.50;28.80;;;;;;;3.16;96.23;99590.88;1473901;88;22225;-84
2021/12/11 05:25:47;;;;;;;59.33;30.17;;;;;;;3.22;96.34;99603.91;1482097;88;22050;-87
2021/12/11 05:28:16;;;;;;;69.17;31.17;;;;;;;3.23;95.97;99605.59;1481566;88;22698;-86
2021/12/11 05:30:53;;;;;;;70.23;33.57;;;;;;;3.22;95.51;99601.77;1461141;88;22388;-84
2021/12/11 05:33:22;;;;;;;78.83;34.27;;;;;;;3.22;95.54;99607.83;1437766;90;22356;-86
2021/12/11 05:35:50;;;;;;;65.33;33.30;;;;;;;3.25;95.55;99610.69;1516482;91;22017;-87
2021/12/11 05:38:20;;;;;;;61.73;30.23;;;;;;;3.29;95.56;99618.66;1416590;91;22088;-86
2021/12/11 05:40:52;;;;;;;73.77;34.83;;;;;;;3.33;95.63;99622.69;1516346;91;22922;-87
2021/12/11 05:43:20;;;;;;;62.53;29.13;;;;;;;3.35;95.51;99624.72;1506481;91;22128;-86
2021/12/11 05:45:48;;;;;;;61.87;29.50;;;;;;;3.34;95.29;99635.66;1480699;91;22094;-86
2021/12/11 05:48:18;;;;;;;68.67;31.70;;;;;;;3.34;95.29;99635.66;1460562;88;21352;-87
2021/12/11 05:50:54;;;;;;;65.17;30.07;;;;;;;3.38;95.27;99632.31;1464964;88;22319;-87
2021/12/11 05:53:23;;;;;;;62.77;30.07;;;;;;;3.43;95.60;99630.17;1464581;88;22229;-85
2021/12/11 05:55:54;;;;;;;64.17;29.60;;;;;;;3.46;95.38;99628.63;1462785;88;22100;-86
2021/12/11 05:58:46;;;;;;;48.80;24.17;;;;;;;3.37;95.57;99638.52;1441150;88;21376;-87
2021/12/11 06:00:56;;;;;;;52.60;25.63;;;;;;;3.37;95.57;99638.52;1492144;88;21495;-86
2021/12/11 06:03:24;;;;;;;61.07;29.50;;;;;;;3.38;95.30;99633.63;1426122;90;22004;-87
2021/12/11 06:05:52;;;;;;;59.40;28.33;;;;;;;3.41;95.33;99650.38;1554105;88;21340;-87
2021/12/11 06:08:19;;;;;;;63.63;27.63;;;;;;;3.40;95.32;99655.27;1555823;88;22013;-86
2021/12/11 06:10:46;;;;;;;60.83;30.07;;;;;;;3.35;94.93;99653.48;1529870;88;22022;-87
2021/12/11 06:13:14;;;;;;;59.97;28.83;;;;;;;3.35;94.93;99650.87;1555822;88;21198;-86
2021/12/11 06:15:42;;;;;;;55.33;27.57;;;;;;;3.34;95.13;99649.22;1481587;88;21338;-87
2021/12/11 06:18:15;;;;;;;61.50;29.20;;;;;;;3.41;95.11;99663.95;1555596;88;21989;-86
2021/12/11 06:20:39;;;;;;;57.90;28.20;;;;;;;3.38;94.87;99665.02;1551949;88;22713;-84
2021/12/11 06:23:07;;;;;;;60.17;28.83;;;;;;;3.33;95.48;99669.28;1552515;88;21329;-81
2021/12/11 06:25:34;;;;;;;58.80;29.60;;;;;;;3.27;95.22;99675.48;1466854;88;22153;-82
2021/12/11 06:28:05;;;;;;;57.10;27.00;;;;;;;3.26;95.25;99685.59;1471498;88;22331;-85
2021/12/11 06:30:33;;;;;;;50.33;26.65;;;;;;;3.21;95.43;99674.66;1464727;88;23163;-85
2021/12/11 06:33:02;;;;;;;57.77;28.70;;;;;;;3.17;95.56;99672.76;1420270;88;21250;-85
2021/12/11 06:35:55;;;;;;;58.83;29.57;;;;;;;3.16;95.31;99671.93;1556636;88;22124;-85
2021/12/11 06:38:28;;;;;;;48.87;27.20;;;;;;;3.19;95.53;99677.85;1556372;88;22837;-85
2021/12/11 06:40:57;;;;;;;47.80;25.67;;;;;;;3.13;95.72;99671.31;1441586;88;22871;-85
2021/12/11 06:43:24;;;;;;;52.10;28.57;;;;;;;3.02;96.41;99669.55;1555711;88;22013;-86
2021/12/11 06:45:53;;;;;;;51.70;28.27;;;;;;;2.98;96.65;99673.33;1556066;88;23055;-85
2021/12/11 06:48:20;;;;;;;47.80;25.30;;;;;;;2.93;97.34;99671.53;1507604;88;21998;-83
2021/12/11 06:50:49;;;;;;;49.40;26.27;;;;;;;2.92;97.72;99673.32;1508312;88;22137;-84
2021/12/11 06:53:40;;;;;;;50.13;25.97;;;;;;;2.85;98.46;99677.81;1472191;88;22062;-84
2021/12/11 06:56:11;;;;;;;57.00;26.17;;;;;;;2.85;98.46;99696.97;1464789;88;22094;-83
2021/12/11 06:58:39;;;;;;;;;;;;;;;2.87;98.37;99715.12;1558866;88;21271;-86
2021/12/11 07:01:09;;;;;;;55.80;27.47;;;;;;;2.90;98.98;99730.58;1543508;88;20338;-85
2021/12/11 07:03:38;;;;;;;55.40;26.53;;;;;;;2.93;98.55;99732.96;1378337;89;21952;-85
2021/12/11 07:06:06;;;;;;;53.33;26.60;;;;;;;2.96;98.56;99747.11;1537685;89;21892;-86
2021/12/11 07:08:38;;;;;;;57.87;27.40;;;;;;;3.04;98.63;99761.74;1537976;89;21999;-86
2021/12/11 07:11:09;;;;;;;49.10;25.30;;;;;;;3.17;98.66;99769.52;1371141;91;23113;-86
2021/12/11 07:13:41;;;;;;;58.90;29.17;;;;;;;3.27;98.55;99777.48;1467496;90;21304;-86
2021/12/11 07:16:10;;;;;;;62.57;30.53;;;;;;;3.36;98.27;99792.46;1509351;90;22370;-85
2021/12/11 07:18:37;;;;;;;53.97;27.10;;;;;;;3.42;97.81;99803.77;1433844;90;22186;-86
2021/12/11 07:21:07;;;;;;;59.27;29.73;;;;;;;3.50;97.63;99808.42;1440586;90;22560;-86
2021/12/11 07:23:38;;;;;;;62.37;29.77;;;;;;;3.58;97.51;99805.58;1443661;90;22092;-86
2021/12/11 07:26:16;;;;;;;57.98;28.02;;;;;;;3.67;97.51;99821.04;1429600;90;22917;-87
2021/12/11 07:28:49;;;;;;;58.40;26.47;;;;;;;3.78;97.39;99825.45;1470903;89;22011;-86
2021/12/11 07:31:21;;;;;;;55.37;27.87;;;;;;;3.81;96.45;99823.91;1442306;90;21552;-86
2021/12/11 07:33:50;;;;;;;63.90;30.47;;;;;;;3.78;95.29;99833.30;1443071;89;23208;-85
2021/12/11 07:36:19;;;;;;;57.67;27.60;;;;;;;3.74;94.96;99858.89;1527740;89;21985;-85
2021/12/11 07:38:47;;;;;;;56.23;27.60;;;;;;;3.70;94.88;99851.38;1437812;90;21361;-87
2021/12/11 07:41:17;;;;;;;68.07;29.83;;;;;;;3.70;94.66;99868.39;1492724;92;21283;-84
2021/12/11 07:43:46;;;;;;;65.67;31.30;;;;;;;3.69;94.57;99861.74;1458754;92;21398;-84
2021/12/11 07:46:19;;;;;;;67.37;30.07;;;;;;;3.64;95.02;99858.40;1413592;92;21368;-84
2021/12/11 07:48:47;;;;;;;65.93;29.33;;;;;;;3.64;95.02;99858.40;1418735;91;21404;-83
2021/12/11 07:51:17;;;;;;;59.17;28.53;;;;;;;3.64;95.32;99863.15;1431031;91;21389;-84
2021/12/11 07:53:44;;;;;;;67.67;31.70;;;;;;;3.68;95.25;99872.90;1512499;91;21190;-85
2021/12/11 07:56:14;;;;;;;90.93;31.53;;;;;;;3.68;95.25;99872.90;1397066;91;21466;-86
2021/12/11 07:58:41;;;;;;;66.77;28.93;;;;;;;3.74;95.58;99875.05;1467385;91;22154;-84
2021/12/11 08:01:09;;;;;;;68.10;31.70;;;;;;;3.73;95.40;99873.39;1426672;91;21508;-85
2021/12/11 08:03:37;;;;;;;81.60;33.83;;;;;;;3.74;95.25;99882.90;1412908;91;21236;-85
2021/12/11 08:06:07;;;;;;;65.43;30.70;;;;;;;3.77;95.49;99882.66;1421892;91;22353;-85
2021/12/11 08:08:36;;;;;;;69.90;30.02;;;;;;;3.74;95.35;99882.45;1506063;91;21458;-82
2021/12/11 08:11:11;;;;;;;66.70;29.03;;;;;;;3.76;95.27;99887.55;1479062;91;21310;-83
2021/12/11 08:13:43;;;;;;;66.40;30.40;;;;;;;3.75;95.30;99881.97;1351134;91;21449;-83
2021/12/11 08:16:13;;;;;;;68.57;31.43;;;;;;;3.64;95.65;99880.16;1470368;91;22284;-82
2021/12/11 08:18:40;;;;;;;68.77;28.50;;;;;;;3.54;96.77;99881.80;1505756;91;22198;-81
2021/12/11 08:21:08;;;;;;;78.30;32.80;;;;;;;3.42;98.11;99884.03;1505712;91;21310;-82
2021/12/11 08:23:43;;;;;;;76.97;33.67;;;;;;;3.41;98.37;99884.52;1505638;91;21288;-82
2021/12/11 08:26:07;;;;;;;69.20;27.83;;;;;;;3.48;98.38;99890.97;1355827;93;22838;-82
2021/12/11 08:28:34;;;;;;;56.23;26.37;;;;;;;3.42;99.68;99900.56;1505857;91;21505;-83
2021/12/11 08:31:02;;;;;;;79.43;32.57;;;;;;;3.42;99.68;99900.56;1475216;91;21568;-82
2021/12/11 08:33:35;;;;;;;88.10;36.87;;;;;;;3.50;99.57;99902.13;1398000;91;22094;-82
2021/12/11 08:36:00;;;;;;;73.13;31.00;;;;;;;3.48;100.00;99884.88;1504581;91;22464;-83
2021/12/11 08:38:28;;;;;;;67.60;30.53;;;;;;;3.54;100.00;99895.73;1505509;91;21963;-78
2021/12/11 08:40:58;;;;;;;61.57;27.53;;;;;;;3.60;100.00;99894.44;1517622;90;21429;-78
2021/12/11 08:43:27;;;;;;;72.47;32.33;;;;;;;3.78;100.00;99901.36;1517304;90;22322;-78
2021/12/11 08:46:14;;;;;;;62.37;26.33;;;;;;;3.92;100.00;99897.70;1517543;90;21355;-78
2021/12/11 08:48:47;;;;;;;68.63;29.77;;;;;;;4.02;100.00;99906.02;1507847;91;21340;-75
2021/12/11 08:51:22;;;;;;;66.73;31.47;;;;;;;4.16;100.00;99908.05;1474627;90;21260;-75
2021/12/11 08:53:51;;;;;;;59.60;28.70;;;;;;;4.27;100.00;99915.91;1434092;91;21304;-75
2021/12/11 08:56:20;;;;;;;58.87;27.97;;;;;;;4.29;100.00;99910.08;1517464;90;21179;-78
2021/12/11 08:58:49;;;;;;;51.47;25.53;;;;;;;4.38;100.00;99908.05;1515584;90;21441;-77
2021/12/11 09:01:36;;;;;;;48.50;24.90;;;;;;;4.38;100.00;99901.50;1344142;90;21419;-77
2021/12/11 09:04:21;;;;;;;55.77;25.77;;;;;;;4.38;100.00;99897.56;1526308;90;22561;-77
2021/12/11 09:07:00;;;;;;;48.77;27.57;;;;;;;4.43;100.00;99900.66;1446475;92;21563;-77
2021/12/11 09:09:35;;;;;;;64.77;32.80;;;;;;;4.41;100.00;99896.01;1501685;91;21310;-77
2021/12/11 09:12:14;;;;;;;54.70;26.70;;;;;;;4.53;100.00;99905.52;1418024;91;21382;-77
2021/12/11 09:15:00;;;;;;;45.30;23.07;;;;;;;4.52;99.85;99906.48;1357639;92;21323;-80
2021/12/11 09:17:41;;;;;;;60.60;31.60;;;;;;;4.57;99.15;99907.41;1359917;92;21368;-80
2021/12/11 09:20:25;;;;;;;61.67;32.80;;;;;;;4.54;97.89;99906.34;1475026;91;21957;-80
2021/12/11 09:23:04;;;;;;;69.37;39.20;;;;;;;4.55;97.92;99894.92;1426206;91;21581;-80
2021/12/11 09:25:53;;;;;;;51.13;27.50;;;;;;;4.59;97.90;99891.09;1433617;91;21449;-79
2021/12/11 09:28:28;;;;;;;60.10;33.30;;;;;;;4.60;97.06;99885.37;1415960;92;21955;-76
2021/12/11 09:31:22;;;;;;;126.53;58.03;;;;;;;4.60;96.65;99889.30;1413994;91;22426;-76
2021/12/11 09:33:55;;;;;;;150.67;72.23;;;;;;;4.61;96.34;99892.30;1431409;90;21626;-78
2021/12/11 09:36:30;;;;;;;80.03;40.23;;;;;;;4.62;96.40;99895.26;1435783;91;21641;-78
2021/12/11 09:39:05;;;;;;;64.73;34.93;;;;;;;4.60;95.52;99887.98;1430372;90;21610;-78
2021/12/11 09:41:33;;;;;;;60.70;31.50;;;;;;;4.56;95.40;99883.95;1425631;90;21545;-78
2021/12/11 09:44:15;;;;;;;72.93;40.17;;;;;;;4.52;94.90;99885.52;1429164;90;21420;-78
2021/12/11 09:47:09;;;;;;;147.70;77.17;;;;;;;4.51;95.23;99888.24;1423834;91;21537;-78
2021/12/11 09:49:44;;;;;;;104.47;54.47;;;;;;;4.54;95.48;99895.86;1430743;91;21730;-79
2021/12/11 09:52:24;;;;;;;69.47;37.50;;;;;;;4.55;95.48;99896.23;1427003;91;23297;-78
2021/12/11 09:55:00;;;;;;;52.73;31.20;;;;;;;4.56;95.31;99895.75;1416356;91;21383;-79
2021/12/11 09:57:33;;;;;;;123.00;67.53;;;;;;;4.63;95.35;99905.64;1428564;91;21500;-79
2021/12/11 10:00:09;;;;;;;48.77;29.17;;;;;;;4.70;95.44;99903.34;1438207;90;22491;-78
2021/12/11 10:02:37;;;;;;;50.70;28.50;;;;;;;4.75;95.21;99913.00;1356572;91;21361;-78
2021/12/11 10:05:43;;;;;;;58.23;32.30;;;;;;;4.84;95.33;99920.12;1460814;90;22160;-78
2021/12/11 10:08:02;;;;;;;61.97;36.27;;;;;;;4.84;94.33;99920.60;1375002;91;21346;-76
2021/12/11 10:10:22;;;;;;;37.93;23.53;;;;;;;4.83;94.37;99927.61;1367484;92;21376;-82
2021/12/11 10:12:55;;;;;;;35.63;22.13;;;;;;;4.79;93.44;99931.45;1405049;91;22343;-80
2021/12/11 10:15:38;;;;;;;66.20;39.23;;;;;;;4.78;93.60;99931.58;1424592;91;21470;-79
2021/12/11 10:18:19;;;;;;;56.60;33.03;;;;;;;4.73;93.58;99926.70;1432160;90;23108;-79
2021/12/11 10:20:55;;;;;;;84.63;47.20;;;;;;;4.76;93.89;99926.45;1428349;90;21670;-79
2021/12/11 10:23:32;;;;;;;46.00;28.03;;;;;;;4.80;93.98;99929.65;1436880;91;21360;-79
2021/12/11 10:26:02;;;;;;;35.30;22.60;;;;;;;4.78;93.89;99928.97;1407027;90;21309;-79
2021/12/11 10:28:31;;;;;;;90.38;48.63;;;;;;;4.77;93.66;99933.34;1511947;90;21236;-79
2021/12/11 10:31:24;;;;;;;67.40;38.97;;;;;;;4.78;93.82;99942.90;1503574;90;21220;-79
2021/12/11 10:33:54;;;;;;;35.03;23.40;;;;;;;4.72;92.98;99940.77;1502434;91;21498;-77
2021/12/11 10:36:26;;;;;;;27.73;16.73;;;;;;;4.65;92.60;99938.27;1506682;91;21280;-79
2021/12/11 10:38:57;;;;;;;29.87;19.30;;;;;;;4.63;92.66;99934.47;1460461;91;21935;-80
2021/12/11 10:41:27;;;;;;;28.07;17.17;;;;;;;4.64;92.88;99939.23;1422087;91;22622;-81
2021/12/11 10:44:02;;;;;;;26.20;17.73;;;;;;;4.65;93.22;99938.27;1504901;91;21286;-81
2021/12/11 10:46:36;;;;;;;39.07;27.80;;;;;;;4.67;93.30;99938.98;1494881;91;21317;-81
2021/12/11 10:49:08;;;;;;;26.50;16.67;;;;;;;4.70;93.27;99946.13;1491325;92;21339;-81
2021/12/11 10:51:44;;;;;;;35.07;21.70;;;;;;;4.78;93.62;99944.70;1435620;92;21301;-81
2021/12/11 10:54:15;;;;;;;39.37;25.00;;;;;;;4.82;93.18;99947.41;1441726;92;21429;-81
2021/12/11 10:56:44;;;;;;;28.00;18.55;;;;;;;4.79;92.52;99948.48;1491623;92;21237;-81
2021/12/11 10:59:19;;;;;;;;;;;;;;;4.77;92.53;99934.66;1396078;92;21413;-80
2021/12/11 11:02:01;;;;;;;26.07;17.47;;;;;;;4.79;92.31;99945.86;1491168;92;20388;-80
2021/12/11 11:04:33;;;;;;;26.30;17.07;;;;;;;4.77;92.25;99928.59;1339999;93;21443;-81
2021/12/11 11:07:02;;;;;;;25.00;16.07;;;;;;;4.76;92.30;99933.00;1402338;91;21482;-79
2021/12/11 11:09:31;;;;;;;31.83;20.57;;;;;;;4.78;92.38;99923.23;1491259;92;21243;-80
2021/12/11 11:12:03;;;;;;;25.10;16.43;;;;;;;4.76;92.15;99926.45;1378824;92;21339;-80
2021/12/11 11:14:36;;;;;;;24.90;15.60;;;;;;;4.79;92.06;99922.75;1491231;92;22686;-82
2021/12/11 11:17:09;;;;;;;21.50;13.97;;;;;;;4.79;92.14;99926.20;1327136;96;21368;-81
2021/12/11 11:19:40;;;;;;;27.23;18.07;;;;;;;4.79;91.93;99932.76;1443384;92;21397;-78
2021/12/11 11:22:10;;;;;;;;;;;;;;;4.75;91.93;99920.38;1493674;92;21420;-79
2021/12/11 11:24:43;;;;;;;33.03;21.20;;;;;;;4.77;91.92;99916.30;1455248;92;20252;-78
2021/12/11 11:27:11;;;;;;;28.30;19.33;;;;;;;4.80;92.12;99916.55;1490750;92;21308;-80
2021/12/11 11:29:42;;;;;;;30.37;19.90;;;;;;;4.77;91.91;99901.06;1445312;92;21346;-79
2021/12/11 11:32:15;;;;;;;28.70;19.12;;;;;;;4.79;92.02;99903.09;1411586;92;21397;-78
2021/12/11 11:34:43;;;;;;;26.93;19.47;;;;;;;4.83;92.06;99910.56;1409843;92;21663;-78
2021/12/11 11:37:16;;;;;;;26.17;16.97;;;;;;;4.83;91.54;99909.25;1491500;92;21302;-79
2021/12/11 11:39:43;;;;;;;28.97;19.07;;;;;;;4.89;91.71;99904.86;1500552;91;21318;-79
2021/12/11 11:42:19;;;;;;;24.50;15.63;;;;;;;4.91;91.56;99893.73;1513459;91;21322;-79
2021/12/11 11:44:48;;;;;;;26.57;17.93;;;;;;;4.94;91.45;99901.36;1426297;91;21456;-78
2021/12/11 11:47:18;;;;;;;26.97;18.03;;;;;;;5.01;91.66;99910.06;1514184;91;21197;-78
2021/12/11 11:49:46;;;;;;;22.32;16.00;;;;;;;5.02;91.01;99899.92;1376301;91;22705;-79
2021/12/11 11:52:18;;;;;;;29.93;18.53;;;;;;;5.04;90.85;99888.34;1432337;91;21590;-78
2021/12/11 11:54:49;;;;;;;;;;;;;;;5.09;90.89;99884.88;1418979;91;22433;-78
2021/12/11 11:57:24;;;;;;;26.80;16.70;;;;;;;5.04;89.63;99884.90;1396295;92;20543;-78
2021/12/11 11:59:55;;;;;;;32.67;20.20;;;;;;;5.02;90.02;99890.25;1409165;92;21457;-78
2021/12/11 12:02:24;;;;;;;;;;;;;;;5.03;90.39;99895.84;1413729;92;21522;-78
2021/12/11 12:04:59;;;;;;;29.60;18.90;;;;;;;5.05;90.43;99897.05;1414859;92;21015;-78